Terminal Aerodrome Forecast
Issued by NWS

Home | Current Version | Previous Version | Text Only | Print | Product List | Glossary On
Versions: 1 2 3 4 5 6 7 8 9 10 11 12 13 14 15 16 17 18 19 20
442
FTUS42 KFFC 200333 AAB
TAFPDK
TAF AMD
KPDK 200333Z 2004/2024 13006KT 5SM -SHRA SCT010 BKN025 OVC040
      TEMPO 2004/2006 2SM +TSRA SCT008 BKN015CB OVC030
     FM201000 20006KT 4SM BR OVC007
     FM201500 22007KT P6SM SCT010 BKN025
     FM202000 22006KT P6SM SCT025 BKN040=

USA.gov is the U.S. government's official web portal to all federal, state and local government web resources and services.